Solihull, United Kingdom
Current Conditions -  °F | °C
As of 5:20 PM on Saturday 25 Oct 2014 (Local Time) from EGBB Reporting Station
Broken Clouds Broken Clouds  
Wind Chill: 13°   Ceiling: 4400
Heat Index: 13°   Visibility: 6mi
Dew Point:   Wind: 7mph
Humidity: 77%   Direction: 210°SSW
Pressure: 30"   Gusts: NA
Location:  52.41°N, 1.77°W
Report Text: EGBB 251620Z 21006KT 180V270 9999 SCT019 BKN044 13/09 Q1016
Loading
Personal Weather Stations






























Interactive Weather Map
Tropical Storm Tracking
New forecast layout! Learn more

10-Day Weather Forecast

Advertisements
Track Severe Weather on mobile